sensor_id;sensor_type;location;lat;lon;timestamp;P1;durP1;ratioP1;P2;durP2;ratioP2
17854;SDS011;9053;53.358;6.382;2023-05-14T00:00:02;15.40;;;10.50;;
17854;SDS011;9053;53.358;6.382;2023-05-14T00:02:33;16.37;;;9.50;;
17854;SDS011;9053;53.358;6.382;2023-05-14T00:05:03;12.97;;;8.73;;
17854;SDS011;9053;53.358;6.382;2023-05-14T00:07:41;12.10;;;8.13;;
17854;SDS011;9053;53.358;6.382;2023-05-14T00:10:10;16.73;;;8.33;;
17854;SDS011;9053;53.358;6.382;2023-05-14T00:12:40;12.17;;;7.60;;
17854;SDS011;9053;53.358;6.382;2023-05-14T00:15:10;12.53;;;8.00;;
17854;SDS011;9053;53.358;6.382;2023-05-14T00:17:40;15.77;;;8.23;;
17854;SDS011;9053;53.358;6.382;2023-05-14T00:20:11;14.27;;;8.63;;
17854;SDS011;9053;53.358;6.382;2023-05-14T00:22:43;17.33;;;9.07;;
17854;SDS011;9053;53.358;6.382;2023-05-14T00:25:13;13.33;;;9.80;;
17854;SDS011;9053;53.358;6.382;2023-05-14T00:27:45;15.90;;;9.43;;
17854;SDS011;9053;53.358;6.382;2023-05-14T00:30:15;12.80;;;8.13;;
17854;SDS011;9053;53.358;6.382;2023-05-14T00:32:45;19.33;;;9.80;;
17854;SDS011;9053;53.358;6.382;2023-05-14T00:35:15;16.50;;;9.47;;
17854;SDS011;9053;53.358;6.382;2023-05-14T00:37:48;16.03;;;10.00;;
17854;SDS011;9053;53.358;6.382;2023-05-14T00:40:18;18.50;;;9.80;;
17854;SDS011;9053;53.358;6.382;2023-05-14T00:42:49;21.03;;;9.93;;
17854;SDS011;9053;53.358;6.382;2023-05-14T00:45:19;15.47;;;10.03;;
17854;SDS011;9053;53.358;6.382;2023-05-14T00:47:49;18.00;;;9.70;;
17854;SDS011;9053;53.358;6.382;2023-05-14T00:50:19;14.40;;;9.67;;
17854;SDS011;9053;53.358;6.382;2023-05-14T00:52:52;18.13;;;9.93;;
17854;SDS011;9053;53.358;6.382;2023-05-14T00:55:22;14.90;;;9.73;;
17854;SDS011;9053;53.358;6.382;2023-05-14T00:57:52;18.50;;;9.90;;
17854;SDS011;9053;53.358;6.382;2023-05-14T01:00:24;16.73;;;9.40;;
17854;SDS011;9053;53.358;6.382;2023-05-14T01:02:54;18.73;;;9.43;;
17854;SDS011;9053;53.358;6.382;2023-05-14T01:05:26;17.03;;;9.83;;
17854;SDS011;9053;53.358;6.382;2023-05-14T01:08:05;17.33;;;9.87;;
17854;SDS011;9053;53.358;6.382;2023-05-14T01:10:44;18.67;;;10.33;;
17854;SDS011;9053;53.358;6.382;2023-05-14T01:13:22;12.10;;;8.60;;
17854;SDS011;9053;53.358;6.382;2023-05-14T01:15:55;14.70;;;8.70;;
17854;SDS011;9053;53.358;6.382;2023-05-14T01:18:26;13.50;;;8.70;;
17854;SDS011;9053;53.358;6.382;2023-05-14T01:20:58;15.53;;;9.43;;
17854;SDS011;9053;53.358;6.382;2023-05-14T01:23:32;14.40;;;8.67;;
17854;SDS011;9053;53.358;6.382;2023-05-14T01:26:02;13.17;;;9.30;;
17854;SDS011;9053;53.358;6.382;2023-05-14T01:28:36;14.97;;;9.10;;
17854;SDS011;9053;53.358;6.382;2023-05-14T01:31:07;18.27;;;9.87;;
17854;SDS011;9053;53.358;6.382;2023-05-14T01:33:45;18.67;;;9.97;;
17854;SDS011;9053;53.358;6.382;2023-05-14T01:36:16;15.10;;;8.27;;
17854;SDS011;9053;53.358;6.382;2023-05-14T01:38:49;16.37;;;9.13;;
17854;SDS011;9053;53.358;6.382;2023-05-14T01:41:20;17.93;;;10.13;;
17854;SDS011;9053;53.358;6.382;2023-05-14T01:43:51;16.00;;;9.90;;
17854;SDS011;9053;53.358;6.382;2023-05-14T01:46:21;18.00;;;9.73;;
17854;SDS011;9053;53.358;6.382;2023-05-14T01:48:51;12.97;;;9.07;;
17854;SDS011;9053;53.358;6.382;2023-05-14T01:51:21;15.40;;;9.10;;
17854;SDS011;9053;53.358;6.382;2023-05-14T01:53:53;17.13;;;9.43;;
17854;SDS011;9053;53.358;6.382;2023-05-14T01:56:23;15.57;;;8.57;;
17854;SDS011;9053;53.358;6.382;2023-05-14T01:58:53;17.23;;;8.77;;
17854;SDS011;9053;53.358;6.382;2023-05-14T02:01:23;20.70;;;8.73;;
17854;SDS011;9053;53.358;6.382;2023-05-14T02:03:57;13.83;;;8.27;;
17854;SDS011;9053;53.358;6.382;2023-05-14T02:06:27;14.03;;;9.17;;
17854;SDS011;9053;53.358;6.382;2023-05-14T02:09:04;13.97;;;8.57;;
17854;SDS011;9053;53.358;6.382;2023-05-14T02:11:34;18.70;;;9.23;;
17854;SDS011;9053;53.358;6.382;2023-05-14T02:14:03;15.27;;;8.57;;
17854;SDS011;9053;53.358;6.382;2023-05-14T02:16:33;15.73;;;8.70;;
17854;SDS011;9053;53.358;6.382;2023-05-14T02:19:03;15.57;;;8.87;;
17854;SDS011;9053;53.358;6.382;2023-05-14T02:21:33;17.67;;;9.47;;
17854;SDS011;9053;53.358;6.382;2023-05-14T02:24:06;18.13;;;9.67;;
17854;SDS011;9053;53.358;6.382;2023-05-14T02:26:36;17.63;;;9.50;;
17854;SDS011;9053;53.358;6.382;2023-05-14T02:29:06;17.33;;;9.20;;
17854;SDS011;9053;53.358;6.382;2023-05-14T02:31:36;20.63;;;9.83;;
17854;SDS011;9053;53.358;6.382;2023-05-14T02:34:06;17.17;;;9.00;;
17854;SDS011;9053;53.358;6.382;2023-05-14T02:36:36;16.83;;;10.13;;
17854;SDS011;9053;53.358;6.382;2023-05-14T02:39:08;13.57;;;8.50;;
17854;SDS011;9053;53.358;6.382;2023-05-14T02:41:38;15.40;;;9.60;;
17854;SDS011;9053;53.358;6.382;2023-05-14T02:44:08;22.80;;;10.83;;
17854;SDS011;9053;53.358;6.382;2023-05-14T02:46:37;18.90;;;9.40;;
17854;SDS011;9053;53.358;6.382;2023-05-14T02:49:07;19.37;;;10.50;;
17854;SDS011;9053;53.358;6.382;2023-05-14T02:51:37;19.03;;;9.70;;
17854;SDS011;9053;53.358;6.382;2023-05-14T02:54:10;21.43;;;10.67;;
17854;SDS011;9053;53.358;6.382;2023-05-14T02:56:41;19.67;;;9.77;;
17854;SDS011;9053;53.358;6.382;2023-05-14T02:59:13;22.57;;;10.47;;
17854;SDS011;9053;53.358;6.382;2023-05-14T03:01:43;15.13;;;9.80;;
17854;SDS011;9053;53.358;6.382;2023-05-14T03:04:14;22.90;;;10.67;;
17854;SDS011;9053;53.358;6.382;2023-05-14T03:06:46;20.53;;;9.87;;
17854;SDS011;9053;53.358;6.382;2023-05-14T03:09:19;15.40;;;8.90;;
17854;SDS011;9053;53.358;6.382;2023-05-14T03:11:49;13.23;;;7.70;;
17854;SDS011;9053;53.358;6.382;2023-05-14T03:14:19;16.33;;;8.67;;
17854;SDS011;9053;53.358;6.382;2023-05-14T03:16:48;16.07;;;8.80;;
17854;SDS011;9053;53.358;6.382;2023-05-14T03:19:18;16.20;;;9.00;;
17854;SDS011;9053;53.358;6.382;2023-05-14T03:21:48;18.57;;;9.50;;
17854;SDS011;9053;53.358;6.382;2023-05-14T03:24:21;17.83;;;8.30;;
17854;SDS011;9053;53.358;6.382;2023-05-14T03:26:50;20.70;;;9.20;;
17854;SDS011;9053;53.358;6.382;2023-05-14T03:29:20;17.17;;;8.80;;
17854;SDS011;9053;53.358;6.382;2023-05-14T03:31:50;19.63;;;10.47;;
17854;SDS011;9053;53.358;6.382;2023-05-14T03:34:23;23.50;;;11.10;;
17854;SDS011;9053;53.358;6.382;2023-05-14T03:36:53;18.70;;;9.67;;
17854;SDS011;9053;53.358;6.382;2023-05-14T03:39:25;17.60;;;9.73;;
17854;SDS011;9053;53.358;6.382;2023-05-14T03:41:55;25.07;;;10.03;;
17854;SDS011;9053;53.358;6.382;2023-05-14T03:44:25;22.40;;;10.63;;
17854;SDS011;9053;53.358;6.382;2023-05-14T03:46:55;20.53;;;10.37;;
17854;SDS011;9053;53.358;6.382;2023-05-14T03:49:25;22.27;;;11.07;;
17854;SDS011;9053;53.358;6.382;2023-05-14T03:51:55;21.37;;;10.50;;
17854;SDS011;9053;53.358;6.382;2023-05-14T03:54:28;21.27;;;11.83;;
17854;SDS011;9053;53.358;6.382;2023-05-14T03:56:58;18.57;;;11.10;;
17854;SDS011;9053;53.358;6.382;2023-05-14T03:59:28;20.23;;;10.73;;
17854;SDS011;9053;53.358;6.382;2023-05-14T04:01:58;21.17;;;10.70;;
17854;SDS011;9053;53.358;6.382;2023-05-14T04:04:28;25.10;;;10.30;;
17854;SDS011;9053;53.358;6.382;2023-05-14T04:06:58;19.60;;;9.73;;
17854;SDS011;9053;53.358;6.382;2023-05-14T04:09:30;21.80;;;9.50;;
17854;SDS011;9053;53.358;6.382;2023-05-14T04:12:00;19.43;;;9.10;;
17854;SDS011;9053;53.358;6.382;2023-05-14T04:14:30;22.70;;;9.23;;
17854;SDS011;9053;53.358;6.382;2023-05-14T04:17:00;21.37;;;9.77;;
17854;SDS011;9053;53.358;6.382;2023-05-14T04:19:30;19.93;;;10.10;;
17854;SDS011;9053;53.358;6.382;2023-05-14T04:22:00;16.87;;;10.60;;
17854;SDS011;9053;53.358;6.382;2023-05-14T04:24:32;22.90;;;10.37;;
17854;SDS011;9053;53.358;6.382;2023-05-14T04:27:03;23.33;;;10.63;;
17854;SDS011;9053;53.358;6.382;2023-05-14T04:29:33;21.50;;;10.63;;
17854;SDS011;9053;53.358;6.382;2023-05-14T04:32:03;18.93;;;10.60;;
17854;SDS011;9053;53.358;6.382;2023-05-14T04:34:34;21.63;;;10.53;;
17854;SDS011;9053;53.358;6.382;2023-05-14T04:37:04;22.23;;;10.10;;
17854;SDS011;9053;53.358;6.382;2023-05-14T04:39:37;18.63;;;9.20;;
17854;SDS011;9053;53.358;6.382;2023-05-14T04:42:07;18.83;;;9.97;;
17854;SDS011;9053;53.358;6.382;2023-05-14T04:44:37;19.27;;;8.90;;
17854;SDS011;9053;53.358;6.382;2023-05-14T04:47:08;17.03;;;8.63;;
17854;SDS011;9053;53.358;6.382;2023-05-14T04:49:38;18.03;;;8.40;;
17854;SDS011;9053;53.358;6.382;2023-05-14T04:52:08;19.80;;;8.00;;
17854;SDS011;9053;53.358;6.382;2023-05-14T04:54:41;21.77;;;8.30;;
17854;SDS011;9053;53.358;6.382;2023-05-14T04:57:11;21.63;;;8.37;;
17854;SDS011;9053;53.358;6.382;2023-05-14T04:59:41;19.63;;;7.90;;
17854;SDS011;9053;53.358;6.382;2023-05-14T05:02:11;16.67;;;7.73;;
17854;SDS011;9053;53.358;6.382;2023-05-14T05:04:41;16.90;;;7.73;;
17854;SDS011;9053;53.358;6.382;2023-05-14T05:07:10;14.70;;;7.40;;
17854;SDS011;9053;53.358;6.382;2023-05-14T05:09:44;15.40;;;7.70;;
17854;SDS011;9053;53.358;6.382;2023-05-14T05:12:14;16.47;;;8.27;;
17854;SDS011;9053;53.358;6.382;2023-05-14T05:14:44;15.03;;;7.43;;
17854;SDS011;9053;53.358;6.382;2023-05-14T05:17:14;18.87;;;8.13;;
17854;SDS011;9053;53.358;6.382;2023-05-14T05:19:46;13.33;;;7.50;;
17854;SDS011;9053;53.358;6.382;2023-05-14T05:22:16;16.07;;;7.87;;
17854;SDS011;9053;53.358;6.382;2023-05-14T05:24:48;13.77;;;8.00;;
17854;SDS011;9053;53.358;6.382;2023-05-14T05:27:18;14.50;;;7.97;;
17854;SDS011;9053;53.358;6.382;2023-05-14T05:29:48;13.43;;;7.93;;
17854;SDS011;9053;53.358;6.382;2023-05-14T05:32:18;10.73;;;6.87;;
17854;SDS011;9053;53.358;6.382;2023-05-14T05:34:48;13.33;;;7.53;;
17854;SDS011;9053;53.358;6.382;2023-05-14T05:37:20;10.97;;;7.13;;
17854;SDS011;9053;53.358;6.382;2023-05-14T05:39:52;9.93;;;6.10;;
17854;SDS011;9053;53.358;6.382;2023-05-14T05:42:22;12.63;;;6.57;;
17854;SDS011;9053;53.358;6.382;2023-05-14T05:44:53;10.37;;;6.63;;
17854;SDS011;9053;53.358;6.382;2023-05-14T05:47:23;8.93;;;6.13;;
17854;SDS011;9053;53.358;6.382;2023-05-14T05:49:53;11.00;;;6.23;;
17854;SDS011;9053;53.358;6.382;2023-05-14T05:52:22;10.67;;;6.40;;
17854;SDS011;9053;53.358;6.382;2023-05-14T05:54:55;9.40;;;6.20;;
17854;SDS011;9053;53.358;6.382;2023-05-14T05:57:25;12.20;;;6.37;;
17854;SDS011;9053;53.358;6.382;2023-05-14T05:59:56;11.73;;;6.20;;
17854;SDS011;9053;53.358;6.382;2023-05-14T06:02:26;12.07;;;6.33;;
17854;SDS011;9053;53.358;6.382;2023-05-14T06:04:58;15.20;;;5.97;;
17854;SDS011;9053;53.358;6.382;2023-05-14T06:07:28;12.97;;;5.97;;
17854;SDS011;9053;53.358;6.382;2023-05-14T06:10:01;10.93;;;6.13;;
17854;SDS011;9053;53.358;6.382;2023-05-14T06:12:31;12.63;;;6.40;;
17854;SDS011;9053;53.358;6.382;2023-05-14T06:15:01;9.00;;;5.50;;
17854;SDS011;9053;53.358;6.382;2023-05-14T06:17:32;14.60;;;6.13;;
17854;SDS011;9053;53.358;6.382;2023-05-14T06:20:02;15.07;;;5.90;;
17854;SDS011;9053;53.358;6.382;2023-05-14T06:22:33;15.33;;;6.53;;
17854;SDS011;9053;53.358;6.382;2023-05-14T06:25:06;12.87;;;6.53;;
17854;SDS011;9053;53.358;6.382;2023-05-14T06:27:37;19.33;;;6.53;;
17854;SDS011;9053;53.358;6.382;2023-05-14T06:30:08;17.97;;;6.03;;
17854;SDS011;9053;53.358;6.382;2023-05-14T06:32:39;12.90;;;5.90;;
17854;SDS011;9053;53.358;6.382;2023-05-14T06:35:09;13.97;;;6.47;;
17854;SDS011;9053;53.358;6.382;2023-05-14T06:37:39;12.37;;;6.40;;
17854;SDS011;9053;53.358;6.382;2023-05-14T06:40:13;20.77;;;7.40;;
17854;SDS011;9053;53.358;6.382;2023-05-14T06:42:43;13.77;;;6.27;;
17854;SDS011;9053;53.358;6.382;2023-05-14T06:45:13;14.50;;;7.00;;
17854;SDS011;9053;53.358;6.382;2023-05-14T06:47:43;12.20;;;6.50;;
17854;SDS011;9053;53.358;6.382;2023-05-14T06:50:13;20.37;;;7.23;;
17854;SDS011;9053;53.358;6.382;2023-05-14T06:52:43;19.93;;;7.27;;
17854;SDS011;9053;53.358;6.382;2023-05-14T06:55:16;14.37;;;7.37;;
17854;SDS011;9053;53.358;6.382;2023-05-14T06:57:46;17.40;;;7.93;;
17854;SDS011;9053;53.358;6.382;2023-05-14T07:00:16;17.87;;;7.77;;
17854;SDS011;9053;53.358;6.382;2023-05-14T07:02:48;14.80;;;7.30;;
17854;SDS011;9053;53.358;6.382;2023-05-14T07:05:21;19.57;;;7.60;;
17854;SDS011;9053;53.358;6.382;2023-05-14T07:07:53;13.07;;;6.77;;
17854;SDS011;9053;53.358;6.382;2023-05-14T07:10:25;19.73;;;7.47;;
17854;SDS011;9053;53.358;6.382;2023-05-14T07:12:56;18.60;;;7.60;;
17854;SDS011;9053;53.358;6.382;2023-05-14T07:15:26;16.07;;;7.40;;
17854;SDS011;9053;53.358;6.382;2023-05-14T07:17:56;14.93;;;6.53;;
17854;SDS011;9053;53.358;6.382;2023-05-14T07:20:26;12.47;;;6.00;;
17854;SDS011;9053;53.358;6.382;2023-05-14T07:22:56;17.43;;;6.63;;
17854;SDS011;9053;53.358;6.382;2023-05-14T07:25:28;14.13;;;6.20;;
17854;SDS011;9053;53.358;6.382;2023-05-14T07:27:58;14.07;;;6.47;;
17854;SDS011;9053;53.358;6.382;2023-05-14T07:30:28;12.77;;;6.57;;
17854;SDS011;9053;53.358;6.382;2023-05-14T07:32:58;12.70;;;6.30;;
17854;SDS011;9053;53.358;6.382;2023-05-14T07:35:27;12.13;;;6.13;;
17854;SDS011;9053;53.358;6.382;2023-05-14T07:37:57;10.30;;;5.57;;
17854;SDS011;9053;53.358;6.382;2023-05-14T07:40:30;12.90;;;5.87;;
17854;SDS011;9053;53.358;6.382;2023-05-14T07:43:00;13.27;;;6.23;;
17854;SDS011;9053;53.358;6.382;2023-05-14T07:45:30;9.67;;;5.70;;
17854;SDS011;9053;53.358;6.382;2023-05-14T07:48:03;10.33;;;5.70;;
17854;SDS011;9053;53.358;6.382;2023-05-14T07:50:33;11.13;;;5.87;;
17854;SDS011;9053;53.358;6.382;2023-05-14T07:53:03;10.13;;;5.93;;
17854;SDS011;9053;53.358;6.382;2023-05-14T07:55:36;18.93;;;5.97;;
17854;SDS011;9053;53.358;6.382;2023-05-14T07:58:05;11.87;;;5.73;;
17854;SDS011;9053;53.358;6.382;2023-05-14T08:00:35;11.50;;;5.73;;
17854;SDS011;9053;53.358;6.382;2023-05-14T08:03:05;15.35;;;6.07;;
17854;SDS011;9053;53.358;6.382;2023-05-14T08:05:35;15.07;;;6.17;;
17854;SDS011;9053;53.358;6.382;2023-05-14T08:08:05;16.57;;;5.60;;
17854;SDS011;9053;53.358;6.382;2023-05-14T08:10:38;11.53;;;6.00;;
17854;SDS011;9053;53.358;6.382;2023-05-14T08:13:08;13.10;;;5.93;;
17854;SDS011;9053;53.358;6.382;2023-05-14T08:15:38;13.10;;;6.30;;
17854;SDS011;9053;53.358;6.382;2023-05-14T08:18:08;14.00;;;6.23;;
17854;SDS011;9053;53.358;6.382;2023-05-14T08:20:38;16.57;;;6.00;;
17854;SDS011;9053;53.358;6.382;2023-05-14T08:23:08;12.30;;;6.73;;
17854;SDS011;9053;53.358;6.382;2023-05-14T08:25:44;15.53;;;6.13;;
17854;SDS011;9053;53.358;6.382;2023-05-14T08:28:17;13.20;;;6.77;;
17854;SDS011;9053;53.358;6.382;2023-05-14T08:30:50;15.30;;;6.70;;
17854;SDS011;9053;53.358;6.382;2023-05-14T08:33:22;14.60;;;6.37;;
17854;SDS011;9053;53.358;6.382;2023-05-14T08:35:55;13.97;;;6.53;;
17854;SDS011;9053;53.358;6.382;2023-05-14T08:38:26;17.90;;;6.27;;
17854;SDS011;9053;53.358;6.382;2023-05-14T08:40:58;13.63;;;6.03;;
17854;SDS011;9053;53.358;6.382;2023-05-14T08:43:29;12.97;;;5.83;;
17854;SDS011;9053;53.358;6.382;2023-05-14T08:46:04;13.70;;;6.47;;
17854;SDS011;9053;53.358;6.382;2023-05-14T08:48:35;15.40;;;7.13;;
17854;SDS011;9053;53.358;6.382;2023-05-14T08:51:09;15.90;;;6.93;;
17854;SDS011;9053;53.358;6.382;2023-05-14T08:53:39;17.47;;;7.60;;
17854;SDS011;9053;53.358;6.382;2023-05-14T08:56:11;13.67;;;6.63;;
17854;SDS011;9053;53.358;6.382;2023-05-14T08:58:43;13.18;;;6.93;;
17854;SDS011;9053;53.358;6.382;2023-05-14T09:01:13;15.17;;;7.50;;
17854;SDS011;9053;53.358;6.382;2023-05-14T09:03:46;15.70;;;7.10;;
17854;SDS011;9053;53.358;6.382;2023-05-14T09:06:17;14.97;;;7.20;;
17854;SDS011;9053;53.358;6.382;2023-05-14T09:08:47;16.90;;;7.20;;
17854;SDS011;9053;53.358;6.382;2023-05-14T09:11:22;14.10;;;7.32;;
17854;SDS011;9053;53.358;6.382;2023-05-14T09:13:52;11.77;;;7.47;;
17854;SDS011;9053;53.358;6.382;2023-05-14T09:16:22;10.03;;;6.80;;
17854;SDS011;9053;53.358;6.382;2023-05-14T09:18:57;12.40;;;7.07;;
17854;SDS011;9053;53.358;6.382;2023-05-14T09:21:30;9.40;;;6.97;;
17854;SDS011;9053;53.358;6.382;2023-05-14T09:24:00;12.48;;;6.85;;
17854;SDS011;9053;53.358;6.382;2023-05-14T09:26:33;12.98;;;7.50;;
17854;SDS011;9053;53.358;6.382;2023-05-14T09:29:03;13.60;;;7.07;;
17854;SDS011;9053;53.358;6.382;2023-05-14T09:31:33;14.63;;;7.40;;
17854;SDS011;9053;53.358;6.382;2023-05-14T09:34:03;12.70;;;7.20;;
17854;SDS011;9053;53.358;6.382;2023-05-14T09:36:33;11.32;;;6.22;;
17854;SDS011;9053;53.358;6.382;2023-05-14T09:39:03;9.85;;;6.60;;
17854;SDS011;9053;53.358;6.382;2023-05-14T09:41:37;13.80;;;7.45;;
17854;SDS011;9053;53.358;6.382;2023-05-14T09:44:07;10.77;;;7.18;;
17854;SDS011;9053;53.358;6.382;2023-05-14T09:46:37;14.27;;;6.78;;
17854;SDS011;9053;53.358;6.382;2023-05-14T09:49:06;13.55;;;7.65;;
17854;SDS011;9053;53.358;6.382;2023-05-14T09:51:38;13.63;;;8.27;;
17854;SDS011;9053;53.358;6.382;2023-05-14T09:54:08;11.80;;;7.43;;
17854;SDS011;9053;53.358;6.382;2023-05-14T09:56:41;15.63;;;7.75;;
17854;SDS011;9053;53.358;6.382;2023-05-14T09:59:11;11.33;;;7.97;;
17854;SDS011;9053;53.358;6.382;2023-05-14T10:01:41;10.97;;;7.33;;
17854;SDS011;9053;53.358;6.382;2023-05-14T10:04:12;13.77;;;7.55;;
17854;SDS011;9053;53.358;6.382;2023-05-14T10:06:46;12.55;;;7.82;;
17854;SDS011;9053;53.358;6.382;2023-05-14T10:09:19;15.88;;;8.13;;
17854;SDS011;9053;53.358;6.382;2023-05-14T10:11:56;14.77;;;7.97;;
17854;SDS011;9053;53.358;6.382;2023-05-14T10:14:31;11.85;;;7.78;;
17854;SDS011;9053;53.358;6.382;2023-05-14T10:17:04;13.88;;;8.20;;
17854;SDS011;9053;53.358;6.382;2023-05-14T10:19:44;12.15;;;8.68;;
17854;SDS011;9053;53.358;6.382;2023-05-14T10:22:22;15.57;;;8.82;;
17854;SDS011;9053;53.358;6.382;2023-05-14T10:24:55;14.10;;;8.00;;
17854;SDS011;9053;53.358;6.382;2023-05-14T10:27:28;14.02;;;7.45;;
17854;SDS011;9053;53.358;6.382;2023-05-14T10:29:58;13.13;;;8.70;;
17854;SDS011;9053;53.358;6.382;2023-05-14T10:32:29;14.95;;;8.55;;
17854;SDS011;9053;53.358;6.382;2023-05-14T10:35:13;13.35;;;8.45;;
17854;SDS011;9053;53.358;6.382;2023-05-14T10:37:46;12.57;;;8.38;;
17854;SDS011;9053;53.358;6.382;2023-05-14T10:40:19;14.25;;;8.63;;
17854;SDS011;9053;53.358;6.382;2023-05-14T10:42:59;13.43;;;8.55;;
17854;SDS011;9053;53.358;6.382;2023-05-14T10:45:30;11.45;;;7.60;;
17854;SDS011;9053;53.358;6.382;2023-05-14T10:48:00;12.93;;;7.80;;
17854;SDS011;9053;53.358;6.382;2023-05-14T10:50:30;14.57;;;7.90;;
17854;SDS011;9053;53.358;6.382;2023-05-14T10:53:01;14.43;;;9.02;;
17854;SDS011;9053;53.358;6.382;2023-05-14T10:55:31;11.45;;;8.93;;
17854;SDS011;9053;53.358;6.382;2023-05-14T10:58:04;13.70;;;8.05;;
17854;SDS011;9053;53.358;6.382;2023-05-14T11:00:34;11.30;;;7.53;;
17854;SDS011;9053;53.358;6.382;2023-05-14T11:03:05;11.75;;;8.23;;
17854;SDS011;9053;53.358;6.382;2023-05-14T11:05:36;10.85;;;8.35;;
17854;SDS011;9053;53.358;6.382;2023-05-14T11:08:09;15.57;;;9.13;;
17854;SDS011;9053;53.358;6.382;2023-05-14T11:10:41;15.35;;;8.55;;
17854;SDS011;9053;53.358;6.382;2023-05-14T11:13:18;14.55;;;8.60;;
17854;SDS011;9053;53.358;6.382;2023-05-14T11:15:48;10.65;;;7.97;;
17854;SDS011;9053;53.358;6.382;2023-05-14T11:18:25;15.00;;;8.65;;
17854;SDS011;9053;53.358;6.382;2023-05-14T11:20:58;11.63;;;7.30;;
17854;SDS011;9053;53.358;6.382;2023-05-14T11:23:30;11.68;;;8.40;;
17854;SDS011;9053;53.358;6.382;2023-05-14T11:26:00;15.30;;;8.68;;
17854;SDS011;9053;53.358;6.382;2023-05-14T11:28:33;8.93;;;6.80;;
17854;SDS011;9053;53.358;6.382;2023-05-14T11:31:04;11.88;;;8.32;;
17854;SDS011;9053;53.358;6.382;2023-05-14T11:33:34;12.05;;;9.18;;
17854;SDS011;9053;53.358;6.382;2023-05-14T11:36:04;13.13;;;8.50;;
17854;SDS011;9053;53.358;6.382;2023-05-14T11:38:44;16.17;;;9.35;;
17854;SDS011;9053;53.358;6.382;2023-05-14T11:41:16;16.15;;;9.05;;
17854;SDS011;9053;53.358;6.382;2023-05-14T11:43:51;12.07;;;8.10;;
17854;SDS011;9053;53.358;6.382;2023-05-14T11:46:23;15.40;;;10.30;;
17854;SDS011;9053;53.358;6.382;2023-05-14T11:48:55;10.48;;;8.73;;
17854;SDS011;9053;53.358;6.382;2023-05-14T11:51:25;10.57;;;8.43;;
17854;SDS011;9053;53.358;6.382;2023-05-14T11:53:55;13.27;;;10.20;;
17854;SDS011;9053;53.358;6.382;2023-05-14T11:56:25;12.88;;;10.18;;
17854;SDS011;9053;53.358;6.382;2023-05-14T11:58:58;13.85;;;9.27;;
17854;SDS011;9053;53.358;6.382;2023-05-14T12:01:28;13.55;;;9.73;;
17854;SDS011;9053;53.358;6.382;2023-05-14T12:04:00;15.07;;;10.10;;
17854;SDS011;9053;53.358;6.382;2023-05-14T12:06:32;12.20;;;8.88;;
17854;SDS011;9053;53.358;6.382;2023-05-14T12:09:03;13.25;;;9.57;;
17854;SDS011;9053;53.358;6.382;2023-05-14T12:11:34;13.60;;;10.13;;
17854;SDS011;9053;53.358;6.382;2023-05-14T12:14:12;16.50;;;10.35;;
17854;SDS011;9053;53.358;6.382;2023-05-14T12:16:44;16.27;;;10.02;;
17854;SDS011;9053;53.358;6.382;2023-05-14T12:19:15;17.33;;;11.02;;
17854;SDS011;9053;53.358;6.382;2023-05-14T12:21:49;14.98;;;9.30;;
17854;SDS011;9053;53.358;6.382;2023-05-14T12:24:24;13.98;;;10.25;;
17854;SDS011;9053;53.358;6.382;2023-05-14T12:26:54;13.13;;;9.60;;
17854;SDS011;9053;53.358;6.382;2023-05-14T12:29:26;19.58;;;12.05;;
17854;SDS011;9053;53.358;6.382;2023-05-14T12:31:56;16.50;;;11.38;;
17854;SDS011;9053;53.358;6.382;2023-05-14T12:34:30;15.73;;;10.50;;
17854;SDS011;9053;53.358;6.382;2023-05-14T12:37:02;15.55;;;11.50;;
17854;SDS011;9053;53.358;6.382;2023-05-14T12:39:33;15.75;;;11.95;;
17854;SDS011;9053;53.358;6.382;2023-05-14T12:42:03;14.65;;;10.50;;
17854;SDS011;9053;53.358;6.382;2023-05-14T12:44:37;18.40;;;11.68;;
17854;SDS011;9053;53.358;6.382;2023-05-14T12:47:08;15.40;;;11.23;;
17854;SDS011;9053;53.358;6.382;2023-05-14T12:49:40;16.08;;;11.95;;
17854;SDS011;9053;53.358;6.382;2023-05-14T12:52:10;14.07;;;10.98;;
17854;SDS011;9053;53.358;6.382;2023-05-14T12:54:51;17.95;;;11.98;;
17854;SDS011;9053;53.358;6.382;2023-05-14T12:57:21;18.48;;;12.10;;
17854;SDS011;9053;53.358;6.382;2023-05-14T12:59:53;15.05;;;11.50;;
17854;SDS011;9053;53.358;6.382;2023-05-14T13:02:23;17.02;;;10.98;;
17854;SDS011;9053;53.358;6.382;2023-05-14T13:04:53;19.88;;;12.18;;
17854;SDS011;9053;53.358;6.382;2023-05-14T13:07:23;20.48;;;13.13;;
17854;SDS011;9053;53.358;6.382;2023-05-14T13:09:53;17.58;;;11.82;;
17854;SDS011;9053;53.358;6.382;2023-05-14T13:12:23;15.68;;;12.15;;
17854;SDS011;9053;53.358;6.382;2023-05-14T13:14:55;14.95;;;11.73;;
17854;SDS011;9053;53.358;6.382;2023-05-14T13:17:25;17.50;;;12.23;;
17854;SDS011;9053;53.358;6.382;2023-05-14T13:20:05;17.70;;;12.15;;
17854;SDS011;9053;53.358;6.382;2023-05-14T13:22:36;14.40;;;11.90;;
17854;SDS011;9053;53.358;6.382;2023-05-14T13:25:07;18.17;;;12.65;;
17854;SDS011;9053;53.358;6.382;2023-05-14T13:27:37;15.57;;;11.60;;
17854;SDS011;9053;53.358;6.382;2023-05-14T13:30:10;19.65;;;12.40;;
17854;SDS011;9053;53.358;6.382;2023-05-14T13:32:40;17.73;;;12.32;;
17854;SDS011;9053;53.358;6.382;2023-05-14T13:35:10;16.65;;;13.52;;
17854;SDS011;9053;53.358;6.382;2023-05-14T13:37:41;15.68;;;12.48;;
17854;SDS011;9053;53.358;6.382;2023-05-14T13:40:11;16.27;;;12.70;;
17854;SDS011;9053;53.358;6.382;2023-05-14T13:42:44;21.58;;;13.27;;
17854;SDS011;9053;53.358;6.382;2023-05-14T13:45:16;18.55;;;12.68;;
17854;SDS011;9053;53.358;6.382;2023-05-14T13:47:46;18.23;;;12.98;;
17854;SDS011;9053;53.358;6.382;2023-05-14T13:50:17;19.25;;;13.98;;
17854;SDS011;9053;53.358;6.382;2023-05-14T13:52:48;18.50;;;13.35;;
17854;SDS011;9053;53.358;6.382;2023-05-14T13:55:18;18.52;;;13.27;;
17854;SDS011;9053;53.358;6.382;2023-05-14T13:57:48;14.38;;;10.80;;
17854;SDS011;9053;53.358;6.382;2023-05-14T14:00:21;17.10;;;12.73;;
17854;SDS011;9053;53.358;6.382;2023-05-14T14:02:54;13.65;;;10.85;;
17854;SDS011;9053;53.358;6.382;2023-05-14T14:05:26;14.88;;;11.32;;
17854;SDS011;9053;53.358;6.382;2023-05-14T14:07:57;13.52;;;10.10;;
17854;SDS011;9053;53.358;6.382;2023-05-14T14:10:47;15.52;;;11.25;;
17854;SDS011;9053;53.358;6.382;2023-05-14T14:13:17;10.30;;;9.07;;
17854;SDS011;9053;53.358;6.382;2023-05-14T14:15:51;14.30;;;10.57;;
17854;SDS011;9053;53.358;6.382;2023-05-14T14:18:20;14.20;;;10.73;;
17854;SDS011;9053;53.358;6.382;2023-05-14T14:20:50;16.80;;;12.60;;
17854;SDS011;9053;53.358;6.382;2023-05-14T14:23:20;17.58;;;13.20;;
17854;SDS011;9053;53.358;6.382;2023-05-14T14:25:50;16.58;;;13.50;;
17854;SDS011;9053;53.358;6.382;2023-05-14T14:28:20;18.45;;;14.32;;
17854;SDS011;9053;53.358;6.382;2023-05-14T14:30:52;19.08;;;14.15;;
17854;SDS011;9053;53.358;6.382;2023-05-14T14:33:25;16.20;;;13.60;;
17854;SDS011;9053;53.358;6.382;2023-05-14T14:35:54;20.30;;;13.63;;
17854;SDS011;9053;53.358;6.382;2023-05-14T14:38:24;19.63;;;14.10;;
17854;SDS011;9053;53.358;6.382;2023-05-14T14:40:54;18.40;;;13.50;;
17854;SDS011;9053;53.358;6.382;2023-05-14T14:43:25;17.23;;;12.82;;
17854;SDS011;9053;53.358;6.382;2023-05-14T14:45:58;15.82;;;13.15;;
17854;SDS011;9053;53.358;6.382;2023-05-14T14:48:31;14.07;;;11.15;;
17854;SDS011;9053;53.358;6.382;2023-05-14T14:51:03;16.40;;;13.13;;
17854;SDS011;9053;53.358;6.382;2023-05-14T14:53:34;16.83;;;13.95;;
17854;SDS011;9053;53.358;6.382;2023-05-14T14:56:06;15.10;;;12.88;;
17854;SDS011;9053;53.358;6.382;2023-05-14T14:58:38;20.45;;;14.73;;
17854;SDS011;9053;53.358;6.382;2023-05-14T15:01:11;20.58;;;15.07;;
17854;SDS011;9053;53.358;6.382;2023-05-14T15:03:43;18.55;;;13.52;;
17854;SDS011;9053;53.358;6.382;2023-05-14T15:06:13;16.45;;;13.30;;